createdAt,value
2022-11-20T00:03:00.916Z,97865.75
2022-11-20T00:08:02.873Z,97863.59
2022-11-20T00:13:05.071Z,97867.13
2022-11-20T00:18:07.013Z,97860.50
2022-11-20T00:23:08.846Z,97865.69
2022-11-20T00:28:10.674Z,97855.72
2022-11-20T00:33:12.472Z,97859.97
2022-11-20T00:38:14.275Z,97865.16
2022-11-20T00:43:16.084Z,97871.25
2022-11-20T00:48:18.068Z,97873.78
2022-11-20T00:53:19.987Z,97879.06
2022-11-20T00:58:22.690Z,97879.16
2022-11-20T01:03:27.162Z,97867.44
2022-11-20T01:08:34.587Z,97866.72
2022-11-20T01:13:40.465Z,97869.25
2022-11-20T01:18:45.123Z,97870.97
2022-11-20T01:23:48.766Z,97870.88
2022-11-20T01:28:51.471Z,97869.06
2022-11-20T01:33:56.133Z,97864.81
2022-11-20T01:39:01.126Z,97856.34
2022-11-20T01:44:05.740Z,97848.75
2022-11-20T01:49:16.463Z,97848.81
2022-11-20T01:54:24.911Z,97838.66
2022-11-20T01:59:29.263Z,97848.81
2022-11-20T02:04:31.413Z,97849.66
2022-11-20T02:09:33.330Z,97836.94
2022-11-20T02:14:35.347Z,97843.75
2022-11-20T02:19:37.136Z,97842.03
2022-11-20T02:24:39.086Z,97832.03
2022-11-20T02:29:54.075Z,97828.06
2022-11-20T02:34:56.656Z,97828.16
2022-11-20T02:39:58.573Z,97827.53
2022-11-20T02:45:00.372Z,97822.63
2022-11-20T02:50:02.411Z,97824.44
2022-11-20T02:55:04.964Z,97821.19
2022-11-20T03:00:07.975Z,97827.25
2022-11-20T03:05:09.975Z,97823.19
2022-11-20T03:10:12.063Z,97820.00
2022-11-20T03:15:13.871Z,97812.47
2022-11-20T03:20:15.838Z,97814.19
2022-11-20T03:25:17.600Z,97812.56
2022-11-20T03:30:19.684Z,97814.47
2022-11-20T03:35:21.628Z,97807.13
2022-11-20T03:40:23.390Z,97807.41
2022-11-20T03:45:25.259Z,97811.66
2022-11-20T03:50:27.054Z,97815.13
2022-11-20T03:55:29.205Z,97824.47
2022-11-20T04:00:31.151Z,97811.84
2022-11-20T04:05:35.193Z,97806.88
2022-11-20T04:10:37.052Z,97801.69
2022-11-20T04:15:38.859Z,97802.50
2022-11-20T04:20:40.620Z,97790.72
2022-11-20T04:25:42.627Z,97791.63
2022-11-20T04:30:44.593Z,97784.00
2022-11-20T04:35:48.454Z,97781.66
2022-11-20T04:40:50.291Z,97769.94
2022-11-20T04:45:53.589Z,97775.94
2022-11-20T04:50:55.835Z,97772.78
2022-11-20T04:56:06.701Z,97772.94
2022-11-20T05:01:14.545Z,97767.97
2022-11-20T05:06:19.135Z,97777.31
2022-11-20T05:11:22.228Z,97777.41
2022-11-20T05:16:25.567Z,97780.13
2022-11-20T05:21:28.796Z,97773.31
2022-11-20T05:26:30.565Z,97766.59
2022-11-20T05:31:32.347Z,97772.59
2022-11-20T05:36:34.283Z,97771.03
2022-11-20T05:41:36.075Z,97773.78
2022-11-20T05:46:38.060Z,97772.22
2022-11-20T05:51:39.988Z,97774.75
2022-11-20T05:56:41.826Z,97773.84
2022-11-20T06:01:43.696Z,97760.34
2022-11-20T06:06:45.505Z,97763.72
2022-11-20T06:11:47.316Z,97760.44
2022-11-20T06:16:49.350Z,97753.72
2022-11-20T06:21:51.228Z,97744.50
2022-11-20T06:26:53.028Z,97749.66
2022-11-20T06:31:54.788Z,97752.09
2022-11-20T06:36:56.626Z,97739.31
2022-11-20T06:41:59.155Z,97750.38
2022-11-20T06:47:02.115Z,97743.66
2022-11-20T06:52:04.248Z,97747.84
2022-11-20T06:57:06.059Z,97745.84
2022-11-20T07:02:13.024Z,97739.69
2022-11-20T07:07:14.881Z,97739.41
2022-11-20T07:12:16.663Z,97749.19
2022-11-20T07:17:18.427Z,97745.38
2022-11-20T07:22:22.921Z,97730.50
2022-11-20T07:27:24.735Z,97734.19
2022-11-20T07:32:26.621Z,97735.34
2022-11-20T07:37:28.465Z,97742.31
2022-11-20T07:42:30.469Z,97731.38
2022-11-20T07:47:38.009Z,97717.19
2022-11-20T07:52:39.818Z,97724.84
2022-11-20T07:57:42.048Z,97718.28
2022-11-20T08:02:44.450Z,97709.88
2022-11-20T08:07:46.505Z,97710.69
2022-11-20T08:13:12.149Z,97719.16
2022-11-20T08:23:38.792Z,97720.09
2022-11-20T08:28:41.036Z,97717.75
2022-11-20T08:33:42.836Z,97718.66
2022-11-20T08:38:50.099Z,97713.66
2022-11-20T08:43:54.646Z,97717.19
2022-11-20T08:48:56.494Z,97709.75
2022-11-20T08:53:59.978Z,97703.19
2022-11-20T08:59:22.926Z,97695.63
2022-11-20T09:04:24.484Z,97682.84
2022-11-20T09:09:26.361Z,97677.00
2022-11-20T09:14:30.264Z,97667.66
2022-11-20T09:19:36.284Z,97667.47
2022-11-20T09:24:38.516Z,97663.56
2022-11-20T09:29:40.547Z,97671.91
2022-11-20T09:34:42.358Z,97669.38
2022-11-20T09:39:44.797Z,97679.09
2022-11-20T09:44:52.579Z,97678.75
2022-11-20T09:49:57.431Z,97679.50
2022-11-20T09:55:02.243Z,97682.84
2022-11-20T10:00:07.072Z,97674.75
2022-11-20T10:05:26.952Z,97670.00
2022-11-20T10:10:43.940Z,97665.94
2022-11-20T10:15:46.163Z,97679.63
2022-11-20T10:20:54.562Z,97666.50
2022-11-20T10:26:02.442Z,97647.94
2022-11-20T10:31:09.796Z,97633.34
2022-11-20T10:36:28.693Z,97632.41
2022-11-20T10:41:37.236Z,97645.88
2022-11-20T10:46:45.757Z,97646.94
2022-11-20T10:51:47.437Z,97652.41
2022-11-20T10:56:54.133Z,97640.91
2022-11-20T11:01:55.965Z,97644.50
2022-11-20T11:07:09.526Z,97638.72
2022-11-20T11:12:12.027Z,97638.00
2022-11-20T11:17:29.596Z,97625.94
2022-11-20T11:22:33.978Z,97625.00
2022-11-20T11:27:46.331Z,97618.50
2022-11-20T11:32:48.677Z,97609.69
2022-11-20T11:37:52.168Z,97612.34
2022-11-20T11:42:57.798Z,97611.78
2022-11-20T11:48:04.162Z,97596.00
2022-11-20T11:53:18.857Z,97579.03
2022-11-20T11:58:51.362Z,97576.50
2022-11-20T12:04:21.637Z,97574.97
2022-11-20T12:09:38.986Z,97572.66
2022-11-20T12:14:44.444Z,97563.16
2022-11-20T12:19:46.191Z,97557.44
2022-11-20T12:24:53.447Z,97544.06
2022-11-20T12:30:14.174Z,97552.31
2022-11-20T12:35:50.055Z,97563.22
2022-11-20T12:41:06.492Z,97569.03
2022-11-20T12:46:14.075Z,97560.31
2022-11-20T12:51:16.400Z,97561.38
2022-11-20T12:56:40.459Z,97560.78
2022-11-20T13:01:51.368Z,97556.50
2022-11-20T13:06:53.558Z,97559.03
2022-11-20T13:12:11.848Z,97556.38
2022-11-20T13:17:19.890Z,97548.59
2022-11-20T13:22:28.134Z,97549.28
2022-11-20T13:27:32.095Z,97534.41
2022-11-20T13:32:34.257Z,97532.53
2022-11-20T13:37:38.494Z,97521.38
2022-11-20T13:42:55.786Z,97524.88
2022-11-20T13:48:06.535Z,97529.03
2022-11-20T13:53:38.913Z,97524.63
2022-11-20T13:59:15.128Z,97519.53
2022-11-20T14:04:25.635Z,97520.22
2022-11-20T14:09:29.094Z,97523.56
2022-11-20T14:14:34.184Z,97523.00
2022-11-20T14:19:38.275Z,97528.34
2022-11-20T14:24:40.086Z,97521.06
2022-11-20T14:29:43.963Z,97527.91
2022-11-20T14:34:48.577Z,97529.78
2022-11-20T14:39:54.731Z,97535.81
2022-11-20T14:45:00.319Z,97539.31
2022-11-20T14:50:08.669Z,97519.09
2022-11-20T14:55:15.474Z,97517.97
2022-11-20T15:00:17.387Z,97515.19
2022-11-20T15:05:21.859Z,97511.63
2022-11-20T15:10:28.847Z,97518.94
2022-11-20T15:15:33.323Z,97515.25
2022-11-20T15:20:37.242Z,97513.84
2022-11-20T15:25:40.918Z,97504.94
2022-11-20T15:30:42.735Z,97511.06
2022-11-20T15:35:45.624Z,97503.78
2022-11-20T15:40:47.534Z,97513.41
2022-11-20T15:45:56.458Z,97512.94
2022-11-20T15:51:04.879Z,97521.66
2022-11-20T15:56:07.493Z,97522.69
2022-11-20T16:01:18.222Z,97510.16
2022-11-20T16:06:20.274Z,97501.13
2022-11-20T16:11:22.133Z,97497.88
2022-11-20T16:16:29.758Z,97498.91
2022-11-20T16:21:32.526Z,97509.25
2022-11-20T16:26:35.027Z,97503.44
2022-11-20T16:31:36.926Z,97506.91
2022-11-20T16:36:41.717Z,97524.78
2022-11-20T16:41:43.518Z,97518.97
2022-11-20T16:46:45.522Z,97522.44
2022-11-20T16:51:47.498Z,97536.13
2022-11-20T16:56:51.087Z,97519.44
2022-11-20T17:01:52.887Z,97517.97
2022-11-20T17:06:54.867Z,97513.78
2022-11-20T17:11:56.644Z,97526.66
2022-11-20T17:16:58.786Z,97529.19
2022-11-20T17:22:00.964Z,97516.56
2022-11-20T17:27:02.826Z,97512.50
2022-11-20T17:32:04.695Z,97519.34
2022-11-20T17:37:06.917Z,97507.63
2022-11-20T17:42:26.830Z,97510.41
2022-11-20T17:47:28.811Z,97509.59
2022-11-20T17:52:30.770Z,97506.34
2022-11-20T17:57:51.224Z,97504.84
2022-11-20T18:02:53.318Z,97504.16
2022-11-20T18:07:55.287Z,97496.84
2022-11-20T18:12:57.117Z,97487.69
2022-11-20T18:17:59.018Z,97485.34
2022-11-20T18:23:02.000Z,97490.78
2022-11-20T18:28:03.760Z,97489.41
2022-11-20T18:33:05.845Z,97495.31
2022-11-20T18:38:07.812Z,97478.28
2022-11-20T18:43:30.415Z,97483.38
2022-11-20T18:48:32.268Z,97481.63
2022-11-20T18:53:39.966Z,97474.81
2022-11-20T18:58:44.964Z,97481.63
2022-11-20T19:03:47.256Z,97466.56
2022-11-20T19:08:49.007Z,97464.38
2022-11-20T19:13:51.359Z,97464.38
2022-11-20T19:18:53.169Z,97468.66
2022-11-20T19:23:58.839Z,97462.84
2022-11-20T19:29:00.673Z,97457.06
2022-11-20T19:34:04.081Z,97450.34
2022-11-20T19:39:07.762Z,97437.72
2022-11-20T19:44:15.094Z,97426.47
2022-11-20T19:49:16.963Z,97428.09
2022-11-20T19:54:18.811Z,97441.44
2022-11-20T19:59:20.987Z,97436.00
2022-11-20T20:04:23.325Z,97439.00
2022-11-20T20:09:27.055Z,97437.97
2022-11-20T20:14:29.042Z,97421.41
2022-11-20T20:19:30.888Z,97415.84
2022-11-20T20:24:32.899Z,97404.47
2022-11-20T20:29:34.693Z,97408.66
2022-11-20T20:34:36.610Z,97413.75
2022-11-20T20:39:38.400Z,97417.00
2022-11-20T20:44:59.331Z,97412.00
2022-11-20T20:50:03.200Z,97392.53
2022-11-20T20:55:05.554Z,97393.13
2022-11-20T21:00:09.166Z,97391.03
2022-11-20T21:05:11.067Z,97373.06
2022-11-20T21:10:12.878Z,97375.50
2022-11-20T21:15:14.746Z,97364.25
2022-11-20T21:20:35.476Z,97347.19
2022-11-20T21:25:39.366Z,97335.25
2022-11-20T21:30:41.191Z,97319.16
2022-11-20T21:35:43.119Z,97306.94
2022-11-20T21:40:45.013Z,97305.31
2022-11-20T21:45:46.818Z,97294.06
2022-11-20T21:50:49.943Z,97287.09
2022-11-20T21:55:55.797Z,97284.31
2022-11-20T22:00:58.145Z,97272.94
2022-11-20T22:06:00.056Z,97277.09
2022-11-20T22:11:04.604Z,97265.72
2022-11-20T22:16:06.584Z,97263.72
2022-11-20T22:21:08.396Z,97248.31
2022-11-20T22:26:21.740Z,97238.78
2022-11-20T22:31:26.074Z,97230.19
2022-11-20T22:36:30.372Z,97224.16
2022-11-20T22:41:32.937Z,97219.63
2022-11-20T22:46:37.480Z,97217.19
2022-11-20T22:51:41.445Z,97214.66
2022-11-20T22:56:43.409Z,97200.28
2022-11-20T23:01:45.261Z,97202.13
2022-11-20T23:06:47.056Z,97188.69
2022-11-20T23:11:48.847Z,97181.03
2022-11-20T23:16:50.706Z,97177.81
2022-11-20T23:21:52.519Z,97172.81
2022-11-20T23:26:54.413Z,97169.47
2022-11-20T23:31:56.233Z,97162.19
2022-11-20T23:36:57.984Z,97155.03
2022-11-20T23:41:59.937Z,97154.47
2022-11-20T23:47:01.727Z,97128.84
2022-11-20T23:52:03.648Z,97130.59
2022-11-20T23:57:05.459Z,97119.44
